Time;durP1;ratioP1;P1;durP2;ratioP2;P2;SDS_P1;SDS_P2;PMS_P1;PMS_P2;Temp;Humidity;BMP_temperature;BMP_pressure;BME280_temperature;BME280_humidity;BME280_pressure;Samples;Min_cycle;Max_cycle;Signal;HPM_P1;HPM_P2
2021/11/01 00:03:49;;;;;;;8.25;1.50;;;12.20;99.90;;;;;;12297868;28;20462;-86
2021/11/01 00:09:51;;;;;;;8.93;1.67;;;12.10;99.90;;;;;;12306989;28;20051;-86
2021/11/01 00:15:53;;;;;;;9.55;1.80;;;12.10;99.90;;;;;;12310740;28;21412;-86
2021/11/01 00:21:55;;;;;;;10.27;1.83;;;12.00;99.90;;;;;;12300975;28;20051;-86
2021/11/01 00:27:56;;;;;;;11.05;1.75;;;12.00;99.90;;;;;;12301675;28;20043;-87
2021/11/01 00:33:58;;;;;;;13.35;2.30;;;12.10;99.90;;;;;;12302699;28;20089;-87
2021/11/01 00:40:00;;;;;;;12.88;2.40;;;12.00;99.90;;;;;;12303192;28;20109;-86
2021/11/01 00:46:02;;;;;;;9.55;2.40;;;12.00;99.90;;;;;;12299026;28;20118;-87
2021/11/01 00:52:06;;;;;;;12.95;2.22;;;11.90;99.90;;;;;;12304142;28;20146;-86
2021/11/01 00:58:07;;;;;;;11.73;2.88;;;11.80;99.90;;;;;;12294993;28;20059;-87
2021/11/01 01:04:09;;;;;;;8.10;2.03;;;11.70;99.90;;;;;;12299459;28;20050;-86
2021/11/01 01:10:11;;;;;;;9.90;2.45;;;11.70;99.90;;;;;;12299586;28;20077;-86
2021/11/01 01:22:28;;;;;;;11.65;2.30;;;11.70;99.90;;;;;;12297479;28;20058;-86
2021/11/01 01:28:31;;;;;;;16.65;2.95;;;11.60;99.90;;;;;;12303477;28;20422;-87
2021/11/01 01:34:33;;;;;;;15.73;3.08;;;11.50;99.90;;;;;;12294454;28;20053;-85
2021/11/01 01:40:36;;;;;;;17.10;3.35;;;11.50;99.90;;;;;;12320108;28;20066;-86
2021/11/01 01:46:38;;;;;;;10.63;2.40;;;11.50;99.90;;;;;;12300515;28;20066;-85
2021/11/01 01:52:41;;;;;;;11.75;2.40;;;11.50;99.90;;;;;;12311583;28;20078;-86
2021/11/01 01:58:49;;;;;;;21.67;2.75;;;11.50;99.90;;;;;;12342761;28;20050;-85
2021/11/01 02:04:52;;;;;;;8.75;2.13;;;11.40;99.90;;;;;;12303109;28;20050;-86
2021/11/01 02:11:17;;;;;;;15.32;2.17;;;11.40;99.90;;;;;;12306674;28;20142;-86
2021/11/01 02:17:27;;;;;;;13.85;2.00;;;11.30;99.90;;;;;;12301497;28;20058;-86
2021/11/01 02:23:38;;;;;;;10.35;2.20;;;11.20;99.90;;;;;;12304356;28;20047;-86
2021/11/01 02:29:44;;;;;;;16.40;2.40;;;11.10;99.90;;;;;;12320318;28;20055;-86
2021/11/01 02:35:46;;;;;;;14.07;2.22;;;11.10;99.90;;;;;;12298878;28;20086;-86
2021/11/01 02:41:47;;;;;;;12.95;1.80;;;11.10;99.90;;;;;;12310382;28;20050;-86
2021/11/01 02:47:49;;;;;;;14.80;2.85;;;11.10;99.90;;;;;;12306661;28;20059;-85
2021/11/01 02:53:51;;;;;;;14.88;2.33;;;11.00;99.90;;;;;;12308933;28;20086;-86
2021/11/01 02:59:53;;;;;;;14.65;2.05;;;11.00;99.90;;;;;;12298709;28;20993;-87
2021/11/01 03:05:55;;;;;;;14.10;2.13;;;10.90;99.90;;;;;;12289713;28;21788;-86
2021/11/01 03:12:00;;;;;;;15.27;2.35;;;10.90;99.90;;;;;;12305122;28;20042;-86
2021/11/01 03:18:06;;;;;;;10.13;1.85;;;10.90;99.90;;;;;;12314606;28;20062;-86
2021/11/01 03:24:11;;;;;;;12.23;1.90;;;10.80;99.90;;;;;;12293316;28;20054;-87
2021/11/01 03:30:15;;;;;;;16.98;2.47;;;10.80;99.90;;;;;;12302577;28;20042;-86
2021/11/01 03:36:17;;;;;;;12.75;1.67;;;10.80;99.90;;;;;;12302821;28;20132;-86
2021/11/01 03:42:21;;;;;;;14.27;2.10;;;10.80;99.90;;;;;;12307645;28;20054;-87
2021/11/01 03:48:25;;;;;;;11.48;1.98;;;10.70;99.90;;;;;;12290882;28;20117;-85
2021/11/01 03:54:27;;;;;;;14.77;2.00;;;10.80;99.90;;;;;;12309427;28;20054;-87
2021/11/01 04:00:34;;;;;;;13.70;2.30;;;10.70;99.90;;;;;;12304546;28;20503;-86
2021/11/01 04:06:41;;;;;;;10.00;1.77;;;10.70;99.90;;;;;;12318537;28;20130;-85
2021/11/01 04:12:44;;;;;;;14.52;2.10;;;10.70;99.90;;;;;;12307099;28;20054;-85
2021/11/01 04:18:54;;;;;;;14.15;2.45;;;10.70;99.90;;;;;;12324321;28;20065;-85
2021/11/01 04:24:56;;;;;;;12.88;2.75;;;10.70;99.90;;;;;;12315491;28;20138;-87
2021/11/01 04:31:10;;;;;;;9.32;1.88;;;10.60;99.90;;;;;;12348609;28;20066;-87
2021/11/01 04:37:12;;;;;;;11.15;1.88;;;10.60;99.90;;;;;;12294177;28;20456;-85
2021/11/01 04:55:41;;;;;;;11.77;2.53;;;10.60;99.90;;;;;;12300551;28;20128;-85
2021/11/01 05:01:47;;;;;;;10.60;2.47;;;10.60;99.90;;;;;;12310381;28;20117;-86
2021/11/01 05:07:49;;;;;;;11.88;1.95;;;10.60;99.90;;;;;;12302598;28;20043;-86
2021/11/01 05:13:51;;;;;;;10.05;1.77;;;10.60;99.90;;;;;;12306938;28;20561;-84
2021/11/01 05:20:17;;;;;;;8.25;1.60;;;10.70;99.90;;;;;;12308789;28;20069;-83
2021/11/01 05:26:37;;;;;;;21.13;2.05;;;10.60;99.90;;;;;;12309568;28;20112;-85
2021/11/01 05:32:42;;;;;;;15.40;2.08;;;10.60;99.90;;;;;;12309140;28;20090;-86
2021/11/01 05:38:43;;;;;;;9.15;1.60;;;10.60;99.90;;;;;;12318027;28;20054;-86
2021/11/01 05:44:45;;;;;;;8.50;1.10;;;10.60;99.90;;;;;;12305751;28;20167;-84
2021/11/01 05:50:50;;;;;;;7.55;1.45;;;10.60;99.90;;;;;;12297982;28;20460;-85
2021/11/01 06:03:07;;;;;;;10.60;1.70;;;10.50;99.90;;;;;;12309228;28;20117;-85
2021/11/01 06:15:27;;;;;;;8.02;1.60;;;10.40;99.90;;;;;;12303550;28;20884;-86
2021/11/01 06:21:29;;;;;;;6.53;1.30;;;10.40;99.90;;;;;;12304559;28;20054;-84
2021/11/01 06:27:35;;;;;;;7.18;1.25;;;10.30;99.90;;;;;;12338888;28;20047;-84
2021/11/01 06:34:00;;;;;;;8.77;1.27;;;10.40;99.90;;;;;;12301786;28;20043;-84
2021/11/01 07:18:31;;;;;;;7.15;1.30;;;10.60;99.90;;;;;;12301077;28;20051;-85
2021/11/01 08:46:08;;;;;;;8.52;1.30;;;11.40;99.90;;;;;;12303928;28;20082;-84
2021/11/01 09:35:49;;;;;;;5.95;1.33;;;11.40;99.90;;;;;;12312676;28;20108;-86
2021/11/01 09:41:51;;;;;;;8.38;1.17;;;11.40;99.90;;;;;;12317971;28;20054;-84
2021/11/01 09:47:53;;;;;;;4.07;0.82;;;11.40;99.90;;;;;;12313401;28;20055;-85
2021/11/01 09:53:56;;;;;;;5.68;0.90;;;11.40;99.90;;;;;;12310194;28;20211;-84
2021/11/01 09:59:58;;;;;;;3.88;0.90;;;11.40;99.90;;;;;;12316033;28;20051;-85
2021/11/01 10:06:01;;;;;;;5.65;0.95;;;11.40;99.90;;;;;;12324806;28;20169;-84
2021/11/01 10:12:03;;;;;;;8.20;1.20;;;11.40;99.90;;;;;;12317285;28;20490;-85
2021/11/01 10:18:13;;;;;;;3.45;0.75;;;11.40;99.90;;;;;;12310664;28;20051;-86
2021/11/01 10:24:22;;;;;;;6.70;0.90;;;11.30;99.90;;;;;;12303303;28;20061;-85
2021/11/01 10:30:30;;;;;;;7.22;1.17;;;11.50;99.90;;;;;;12342973;28;20109;-85
2021/11/01 10:36:38;;;;;;;5.88;1.08;;;11.50;99.90;;;;;;12341721;28;20105;-85
2021/11/01 10:42:45;;;;;;;6.38;1.00;;;11.90;99.90;;;;;;12310128;28;20154;-86
2021/11/01 11:27:45;;;;;;;3.60;0.90;;;13.10;99.90;;;;;;12312658;28;20054;-86
2021/11/01 11:52:36;;;;;;;4.43;1.08;;;13.10;99.90;;;;;;12318844;28;20093;-83
2021/11/01 11:58:41;;;;;;;2.83;1.00;;;13.40;99.90;;;;;;12320379;28;20474;-85
2021/11/01 12:04:47;;;;;;;7.40;0.80;;;13.60;99.90;;;;;;12316343;28;20055;-85
2021/11/01 12:17:12;;;;;;;5.25;0.70;;;13.40;99.90;;;;;;12310164;28;20051;-84
2021/11/01 12:23:14;;;;;;;3.13;0.68;;;13.70;99.90;;;;;;12308608;28;20046;-85
2021/11/01 12:29:17;;;;;;;4.90;0.80;;;13.70;99.90;;;;;;12306299;28;20061;-83
2021/11/01 12:35:26;;;;;;;5.85;0.90;;;13.70;99.90;;;;;;12338162;28;20101;-85
2021/11/01 13:00:46;;;;;;;9.35;0.98;;;13.40;99.90;;;;;;12297417;28;19926;-86
2021/11/01 13:19:20;;;;;;;5.90;1.08;;;13.80;99.90;;;;;;12308039;28;20058;-85
2021/11/01 13:25:29;;;;;;;3.88;0.90;;;13.80;99.90;;;;;;12303636;28;20078;-86
2021/11/01 13:37:57;;;;;;;2.03;0.60;;;13.10;99.90;;;;;;12313092;28;20162;-86
2021/11/01 13:44:13;;;;;;;4.40;0.75;;;12.80;99.90;;;;;;12309956;28;20396;-87
2021/11/01 13:50:17;;;;;;;5.32;1.05;;;12.70;99.90;;;;;;12317313;28;20047;-85
2021/11/01 14:15:14;;;;;;;6.80;0.77;;;12.90;99.90;;;;;;12305466;28;20282;-85
2021/11/01 16:21:17;;;;;;;2.80;0.77;;;11.50;99.90;;;;;;12308430;28;20137;-85
2021/11/01 16:27:21;;;;;;;4.30;1.20;;;11.50;99.90;;;;;;12303116;28;20141;-86
2021/11/01 16:33:28;;;;;;;5.60;0.90;;;11.40;99.90;;;;;;12301043;28;20054;-86
2021/11/01 16:39:49;;;;;;;1.73;0.50;;;11.40;99.90;;;;;;12319024;28;20414;-86
2021/11/01 16:45:53;;;;;;;7.65;0.88;;;11.40;99.90;;;;;;12324672;28;20059;-86
2021/11/01 16:51:55;;;;;;;4.63;0.90;;;11.30;99.90;;;;;;12302338;28;20074;-86
2021/11/01 16:58:01;;;;;;;3.55;0.80;;;11.20;99.90;;;;;;12305167;28;20133;-86
2021/11/01 17:04:08;;;;;;;7.95;1.02;;;11.20;99.90;;;;;;12300478;28;20117;-86
2021/11/01 17:22:41;;;;;;;5.72;1.38;;;11.00;99.90;;;;;;12311813;28;20657;-85
2021/11/01 17:29:05;;;;;;;4.80;1.23;;;10.90;99.90;;;;;;12309275;28;20520;-86
2021/11/01 18:39:31;;;;;;;4.22;1.20;;;10.70;99.90;;;;;;12307219;28;20462;-86
2021/11/01 18:52:07;;;;;;;5.60;1.25;;;10.80;99.90;;;;;;12308279;28;20050;-86
2021/11/01 18:58:12;;;;;;;3.78;1.30;;;10.80;99.90;;;;;;12306825;28;20101;-86
2021/11/01 19:04:21;;;;;;;5.28;1.05;;;10.80;99.90;;;;;;12308555;28;20746;-86
2021/11/01 19:17:56;;;;;;;5.75;1.30;;;10.80;99.90;;;;;;12306163;28;20100;-85
2021/11/01 20:02:51;;;;;;;3.92;1.20;;;10.90;99.90;;;;;;12302782;28;20511;-85
2021/11/01 21:30:51;;;;;;;4.15;1.17;;;10.20;99.90;;;;;;12209774;29;20075;-85
2021/11/01 21:36:54;;;;;;;3.95;1.25;;;10.20;99.90;;;;;;12304252;28;20812;-85
2021/11/01 21:42:56;;;;;;;4.53;1.20;;;10.10;99.90;;;;;;12341114;28;20050;-85
2021/11/01 21:49:18;;;;;;;4.03;1.20;;;10.10;99.90;;;;;;12309394;28;20114;-84
2021/11/01 21:55:23;;;;;;;5.35;1.00;;;10.00;99.90;;;;;;12312029;28;20120;-85
2021/11/01 22:20:15;;;;;;;11.68;1.58;;;9.70;99.90;;;;;;12311391;28;20289;-85
2021/11/01 22:56:56;;;;;;;5.03;0.90;;;9.40;99.90;;;;;;12310215;28;20069;-85
2021/11/01 23:03:04;;;;;;;5.78;0.95;;;9.30;99.90;;;;;;12312882;28;20106;-86
2021/11/01 23:34:35;;;;;;;4.95;0.93;;;9.30;99.90;;;;;;12308523;28;20443;-85
2021/11/01 23:40:37;;;;;;;6.38;1.10;;;9.20;99.90;;;;;;12308569;28;20055;-85
2021/11/01 23:46:39;;;;;;;5.32;1.40;;;9.10;99.90;;;;;;12306464;28;20055;-86
2021/11/01 23:52:53;;;;;;;7.28;1.20;;;9.10;99.90;;;;;;12303362;28;20054;-86
2021/11/01 23:58:55;;;;;;;4.38;1.05;;;9.10;99.90;;;;;;12301964;28;20551;-86
